createdAt,value
2022-12-26T00:01:07.984Z,100.00
2022-12-26T00:03:35.836Z,100.00
2022-12-26T00:06:06.165Z,100.00
2022-12-26T00:08:36.216Z,100.00
2022-12-26T00:11:03.835Z,100.00
2022-12-26T00:13:38.140Z,100.00
2022-12-26T00:16:11.180Z,100.00
2022-12-26T00:18:39.036Z,100.00
2022-12-26T00:21:07.135Z,100.00
2022-12-26T00:23:36.665Z,100.00
2022-12-26T00:26:05.170Z,100.00
2022-12-26T00:28:32.864Z,100.00
2022-12-26T00:31:01.300Z,100.00
2022-12-26T00:33:28.965Z,100.00
2022-12-26T00:36:02.000Z,100.00
2022-12-26T00:38:29.766Z,100.00
2022-12-26T00:40:58.915Z,100.00
2022-12-26T00:43:26.557Z,100.00
2022-12-26T00:45:54.437Z,100.00
2022-12-26T00:48:22.056Z,100.00
2022-12-26T00:50:49.788Z,100.00
2022-12-26T00:53:17.510Z,100.00
2022-12-26T00:55:45.297Z,100.00
2022-12-26T00:58:14.311Z,100.00
2022-12-26T01:00:42.408Z,100.00
2022-12-26T01:03:11.744Z,100.00
2022-12-26T01:05:42.314Z,100.00
2022-12-26T01:08:19.708Z,100.00
2022-12-26T01:10:51.557Z,100.00
2022-12-26T01:13:20.585Z,100.00
2022-12-26T01:15:50.016Z,100.00
2022-12-26T01:18:17.819Z,100.00
2022-12-26T01:20:45.516Z,100.00
2022-12-26T01:23:13.107Z,100.00
2022-12-26T01:26:18.728Z,100.00
2022-12-26T01:28:29.934Z,100.00
2022-12-26T01:31:02.271Z,100.00
2022-12-26T01:33:29.860Z,100.00
2022-12-26T01:35:57.623Z,100.00
2022-12-26T01:38:25.312Z,100.00
2022-12-26T01:41:13.417Z,100.00
2022-12-26T01:43:55.401Z,100.00
2022-12-26T01:46:26.816Z,100.00
2022-12-26T01:48:55.420Z,100.00
2022-12-26T01:51:24.838Z,100.00
2022-12-26T01:53:56.450Z,100.00
2022-12-26T01:56:46.573Z,100.00
2022-12-26T01:59:18.691Z,100.00
2022-12-26T02:01:47.199Z,100.00
2022-12-26T02:04:36.217Z,100.00
2022-12-26T02:07:05.414Z,100.00
2022-12-26T02:09:33.643Z,100.00
2022-12-26T02:12:34.323Z,100.00
2022-12-26T02:14:52.876Z,100.00
2022-12-26T02:17:20.639Z,100.00
2022-12-26T02:19:53.331Z,100.00
2022-12-26T02:22:33.852Z,100.00
2022-12-26T02:25:13.473Z,100.00
2022-12-26T02:28:19.595Z,100.00
2022-12-26T02:30:51.690Z,100.00
2022-12-26T02:33:33.818Z,100.00
2022-12-26T02:36:12.833Z,100.00
2022-12-26T02:38:48.039Z,100.00
2022-12-26T02:41:25.182Z,100.00
2022-12-26T02:44:21.801Z,100.00
2022-12-26T02:47:08.327Z,100.00
2022-12-26T02:50:04.048Z,100.00
2022-12-26T02:52:55.402Z,100.00
2022-12-26T02:55:43.661Z,100.00
2022-12-26T02:58:36.560Z,100.00
2022-12-26T03:01:25.386Z,100.00
2022-12-26T03:04:13.786Z,100.00
2022-12-26T03:07:00.706Z,100.00
2022-12-26T03:09:48.466Z,100.00
2022-12-26T03:12:45.893Z,100.00
2022-12-26T03:15:16.710Z,100.00
2022-12-26T03:17:45.352Z,100.00
2022-12-26T03:20:18.015Z,100.00
2022-12-26T03:22:47.927Z,100.00
2022-12-26T03:25:38.125Z,100.00
2022-12-26T03:28:05.973Z,100.00
2022-12-26T03:30:51.205Z,100.00
2022-12-26T03:33:39.460Z,100.00
2022-12-26T03:36:11.835Z,100.00
2022-12-26T03:38:51.348Z,100.00
2022-12-26T03:41:43.949Z,100.00
2022-12-26T03:44:38.917Z,100.00
2022-12-26T03:47:32.411Z,100.00
2022-12-26T03:50:22.245Z,100.00
2022-12-26T03:53:13.474Z,100.00
2022-12-26T03:56:04.006Z,100.00
2022-12-26T03:58:53.400Z,100.00
2022-12-26T04:01:40.784Z,100.00
2022-12-26T04:04:27.998Z,100.00
2022-12-26T04:07:15.613Z,100.00
2022-12-26T04:10:06.155Z,100.00
2022-12-26T04:12:52.477Z,100.00
2022-12-26T04:15:40.363Z,100.00
2022-12-26T04:18:30.587Z,100.00
2022-12-26T04:21:07.815Z,100.00
2022-12-26T04:23:58.869Z,100.00
2022-12-26T04:26:49.548Z,100.00
2022-12-26T04:29:34.978Z,100.00
2022-12-26T04:32:22.395Z,100.00
2022-12-26T04:35:12.118Z,100.00
2022-12-26T04:38:00.539Z,100.00
2022-12-26T04:40:49.644Z,100.00
2022-12-26T04:43:48.570Z,100.00
2022-12-26T04:46:18.997Z,100.00
2022-12-26T04:49:05.601Z,100.00
2022-12-26T04:51:33.172Z,100.00
2022-12-26T04:54:00.818Z,100.00
2022-12-26T04:56:28.419Z,100.00
2022-12-26T04:58:57.487Z,100.00
2022-12-26T05:01:42.690Z,100.00
2022-12-26T05:04:31.231Z,100.00
2022-12-26T05:07:17.023Z,100.00
2022-12-26T05:09:44.687Z,100.00
2022-12-26T05:12:12.400Z,100.00
2022-12-26T05:14:41.532Z,100.00
2022-12-26T05:17:29.431Z,100.00
2022-12-26T05:20:10.981Z,100.00
2022-12-26T05:22:58.505Z,100.00
2022-12-26T05:25:44.168Z,100.00
2022-12-26T05:28:30.713Z,100.00
2022-12-26T05:31:00.006Z,100.00
2022-12-26T05:33:45.079Z,100.00
2022-12-26T05:36:13.395Z,100.00
2022-12-26T05:38:41.204Z,100.00
2022-12-26T05:41:08.965Z,100.00
2022-12-26T05:43:36.909Z,100.00
2022-12-26T05:46:06.275Z,100.00
2022-12-26T05:48:33.951Z,100.00
2022-12-26T05:51:02.591Z,100.00
2022-12-26T05:53:30.948Z,100.00
2022-12-26T05:56:03.876Z,100.00
2022-12-26T05:58:31.573Z,100.00
2022-12-26T06:01:08.607Z,100.00
2022-12-26T06:03:36.607Z,100.00
2022-12-26T06:06:04.683Z,100.00
2022-12-26T06:08:32.426Z,100.00
2022-12-26T06:11:00.295Z,100.00
2022-12-26T06:13:27.923Z,100.00
2022-12-26T06:15:55.822Z,100.00
2022-12-26T06:18:24.862Z,100.00
2022-12-26T06:20:52.609Z,100.00
2022-12-26T06:23:20.266Z,100.00
2022-12-26T06:25:54.792Z,100.00
2022-12-26T06:28:22.749Z,100.00
2022-12-26T06:30:50.759Z,100.00
2022-12-26T06:33:18.790Z,100.00
2022-12-26T06:35:47.862Z,100.00
2022-12-26T06:38:15.507Z,100.00
2022-12-26T06:40:43.700Z,100.00
2022-12-26T06:43:11.293Z,100.00
2022-12-26T06:45:39.061Z,100.00
2022-12-26T06:48:07.193Z,100.00
2022-12-26T06:50:37.112Z,100.00
2022-12-26T06:53:06.134Z,100.00
2022-12-26T06:55:33.691Z,100.00
2022-12-26T06:58:01.273Z,100.00
2022-12-26T07:00:30.187Z,100.00
2022-12-26T07:02:58.077Z,100.00
2022-12-26T07:05:25.721Z,100.00
2022-12-26T07:07:54.488Z,100.00
2022-12-26T07:10:23.417Z,100.00
2022-12-26T07:12:51.072Z,100.00
2022-12-26T07:15:18.843Z,100.00
2022-12-26T07:17:46.430Z,100.00
2022-12-26T07:20:14.136Z,100.00
2022-12-26T07:22:41.769Z,100.00
2022-12-26T07:25:10.262Z,100.00
2022-12-26T07:27:39.409Z,100.00
2022-12-26T07:30:08.428Z,100.00
2022-12-26T07:32:36.080Z,100.00
2022-12-26T07:35:03.785Z,100.00
2022-12-26T07:37:31.434Z,100.00
2022-12-26T07:39:59.564Z,100.00
2022-12-26T07:42:29.726Z,100.00
2022-12-26T07:44:58.828Z,100.00
2022-12-26T07:47:26.491Z,100.00
2022-12-26T07:49:54.125Z,100.00
2022-12-26T07:52:23.138Z,100.00
2022-12-26T07:54:50.830Z,100.00
2022-12-26T08:00:09.347Z,100.00
2022-12-26T08:02:37.263Z,100.00
2022-12-26T08:05:05.488Z,100.00
2022-12-26T08:07:33.179Z,100.00
2022-12-26T08:10:01.063Z,100.00
2022-12-26T08:12:28.791Z,100.00
2022-12-26T08:14:56.444Z,100.00
2022-12-26T08:17:25.497Z,100.00
2022-12-26T08:19:53.206Z,100.00
2022-12-26T08:22:20.868Z,100.00
2022-12-26T08:24:48.459Z,100.00
2022-12-26T08:27:16.676Z,100.00
2022-12-26T08:29:44.315Z,100.00
2022-12-26T08:32:11.916Z,100.00
2022-12-26T08:34:40.937Z,100.00
2022-12-26T08:37:08.978Z,100.00
2022-12-26T08:39:36.729Z,100.00
2022-12-26T08:42:04.575Z,100.00
2022-12-26T08:44:32.304Z,100.00
2022-12-26T08:46:59.901Z,100.00
2022-12-26T08:49:27.474Z,100.00
2022-12-26T08:51:56.473Z,100.00
2022-12-26T08:54:24.161Z,100.00
2022-12-26T08:56:52.000Z,100.00
2022-12-26T08:59:19.822Z,100.00
2022-12-26T09:01:47.559Z,100.00
2022-12-26T09:04:15.527Z,100.00
2022-12-26T09:06:43.146Z,100.00
2022-12-26T09:09:13.359Z,100.00
2022-12-26T09:11:41.957Z,100.00
2022-12-26T09:14:09.950Z,100.00
2022-12-26T09:16:49.180Z,100.00
2022-12-26T09:19:18.426Z,100.00
2022-12-26T09:21:46.797Z,100.00
2022-12-26T09:24:17.164Z,100.00
2022-12-26T09:26:45.309Z,100.00
2022-12-26T09:29:13.975Z,100.00
2022-12-26T09:31:41.738Z,100.00
2022-12-26T09:34:09.583Z,100.00
2022-12-26T09:36:38.916Z,100.00
2022-12-26T09:39:07.120Z,100.00
2022-12-26T09:41:48.234Z,100.00
2022-12-26T09:44:19.077Z,100.00
2022-12-26T09:46:52.410Z,100.00
2022-12-26T09:49:21.897Z,100.00
2022-12-26T09:51:52.252Z,100.00
2022-12-26T09:54:26.523Z,100.00
2022-12-26T09:57:04.636Z,100.00
2022-12-26T09:59:42.681Z,100.00
2022-12-26T10:02:18.090Z,100.00
2022-12-26T10:04:46.046Z,100.00
2022-12-26T10:07:18.765Z,100.00
2022-12-26T10:09:54.221Z,100.00
2022-12-26T10:12:47.429Z,100.00
2022-12-26T10:15:27.307Z,100.00
2022-12-26T10:18:01.276Z,100.00
2022-12-26T10:20:33.649Z,100.00
2022-12-26T10:23:25.879Z,100.00
2022-12-26T10:25:57.655Z,100.00
2022-12-26T10:28:34.012Z,100.00
2022-12-26T10:31:04.164Z,100.00
2022-12-26T10:33:39.977Z,100.00
2022-12-26T10:36:13.910Z,100.00
2022-12-26T10:38:43.496Z,100.00
2022-12-26T10:41:15.909Z,100.00
2022-12-26T10:43:45.715Z,100.00
2022-12-26T10:46:26.684Z,100.00
2022-12-26T10:48:54.706Z,100.00
2022-12-26T10:51:22.432Z,100.00
2022-12-26T10:53:52.968Z,100.00
2022-12-26T10:56:21.228Z,100.00
2022-12-26T10:59:00.506Z,100.00
2022-12-26T11:01:34.506Z,100.00
2022-12-26T11:04:03.651Z,100.00
2022-12-26T11:06:33.906Z,100.00
2022-12-26T11:09:01.693Z,100.00
2022-12-26T11:11:46.050Z,100.00
2022-12-26T11:14:34.800Z,100.00
2022-12-26T11:17:05.545Z,100.00
2022-12-26T11:19:35.415Z,100.00
2022-12-26T11:22:21.007Z,100.00
2022-12-26T11:25:04.246Z,100.00
2022-12-26T11:27:32.016Z,100.00
2022-12-26T11:30:22.111Z,100.00
2022-12-26T11:32:52.104Z,100.00
2022-12-26T11:35:21.515Z,100.00
2022-12-26T11:37:52.811Z,100.00
2022-12-26T11:40:24.478Z,100.00
2022-12-26T11:42:58.138Z,100.00
2022-12-26T11:45:32.794Z,100.00
2022-12-26T11:48:03.636Z,100.00
2022-12-26T11:50:32.136Z,100.00
2022-12-26T11:53:08.048Z,100.00
2022-12-26T11:55:38.062Z,100.00
2022-12-26T11:58:19.074Z,100.00
2022-12-26T12:01:08.082Z,100.00
2022-12-26T12:03:37.296Z,100.00
2022-12-26T12:09:56.241Z,100.00
2022-12-26T12:12:28.259Z,100.00
2022-12-26T12:15:01.567Z,100.00
2022-12-26T12:17:35.599Z,100.00
2022-12-26T12:20:25.206Z,100.00
2022-12-26T12:23:12.062Z,100.00
2022-12-26T12:25:51.456Z,100.00
2022-12-26T12:28:31.653Z,100.00
2022-12-26T12:31:05.098Z,100.00
2022-12-26T12:33:42.603Z,100.00
2022-12-26T12:36:11.675Z,100.00
2022-12-26T12:38:56.674Z,100.00
2022-12-26T12:41:38.843Z,100.00
2022-12-26T12:44:12.826Z,100.00
2022-12-26T12:46:47.305Z,100.00
2022-12-26T12:49:25.238Z,100.00
2022-12-26T12:51:59.888Z,100.00
2022-12-26T12:54:59.915Z,100.00
2022-12-26T12:57:31.486Z,100.00
2022-12-26T13:00:12.029Z,100.00
2022-12-26T13:02:43.740Z,100.00
2022-12-26T13:05:19.868Z,100.00
2022-12-26T13:07:50.915Z,100.00
2022-12-26T13:10:23.017Z,100.00
2022-12-26T13:12:51.852Z,100.00
2022-12-26T13:15:28.488Z,100.00
2022-12-26T13:18:00.935Z,100.00
2022-12-26T13:20:35.859Z,100.00
2022-12-26T13:23:24.893Z,100.00
2022-12-26T13:26:05.867Z,100.00
2022-12-26T13:28:37.521Z,100.00
2022-12-26T13:31:05.309Z,100.00
2022-12-26T13:33:33.395Z,100.00
2022-12-26T13:36:04.539Z,100.00
2022-12-26T13:39:05.829Z,100.00
2022-12-26T13:41:50.957Z,100.00
2022-12-26T13:44:27.269Z,100.00
2022-12-26T13:46:56.599Z,100.00
2022-12-26T13:49:30.917Z,100.00
2022-12-26T13:52:02.049Z,100.00
2022-12-26T13:54:30.592Z,100.00
2022-12-26T13:57:26.669Z,100.00
2022-12-26T14:00:23.470Z,100.00
2022-12-26T14:03:26.114Z,100.00
2022-12-26T14:06:30.059Z,100.00
2022-12-26T14:09:21.690Z,100.00
2022-12-26T14:12:15.117Z,100.00
2022-12-26T14:14:54.587Z,100.00
2022-12-26T14:17:32.012Z,100.00
2022-12-26T14:20:06.718Z,100.00
2022-12-26T14:22:42.270Z,100.00
2022-12-26T14:25:19.126Z,100.00
2022-12-26T14:27:52.151Z,100.00
2022-12-26T14:30:25.735Z,100.00
2022-12-26T14:33:08.039Z,100.00
2022-12-26T14:35:40.218Z,100.00
2022-12-26T14:38:22.194Z,100.00
2022-12-26T14:41:04.632Z,100.00
2022-12-26T14:43:38.240Z,100.00
2022-12-26T14:46:30.720Z,100.00
2022-12-26T14:49:00.368Z,100.00
2022-12-26T14:51:40.307Z,100.00
2022-12-26T14:54:38.918Z,100.00
2022-12-26T14:57:51.235Z,100.00
2022-12-26T15:00:34.732Z,100.00
2022-12-26T15:03:34.497Z,100.00
2022-12-26T15:06:39.616Z,100.00
2022-12-26T15:09:40.186Z,100.00
2022-12-26T15:12:29.520Z,100.00
2022-12-26T15:15:33.998Z,100.00
2022-12-26T15:18:26.024Z,97.69
2022-12-26T15:21:19.225Z,95.60
2022-12-26T15:24:20.445Z,95.61
2022-12-26T15:27:10.227Z,94.28
2022-12-26T15:29:50.214Z,94.90
2022-12-26T15:32:21.940Z,94.81
2022-12-26T15:34:57.090Z,94.13
2022-12-26T15:37:34.716Z,92.87
2022-12-26T15:40:10.386Z,90.17
2022-12-26T15:42:49.309Z,91.26
2022-12-26T15:45:28.622Z,89.40
2022-12-26T15:48:03.287Z,90.20
2022-12-26T15:50:33.833Z,90.11
2022-12-26T15:53:12.192Z,87.62
2022-12-26T15:56:02.258Z,87.36
2022-12-26T15:58:45.781Z,87.30
2022-12-26T16:01:14.007Z,88.44
2022-12-26T16:03:46.584Z,88.57
2022-12-26T16:06:30.528Z,89.47
2022-12-26T16:09:16.310Z,89.77
2022-12-26T16:11:50.513Z,90.81
2022-12-26T16:14:27.746Z,94.66
2022-12-26T16:16:55.719Z,95.52
2022-12-26T16:19:28.698Z,97.35
2022-12-26T16:22:15.615Z,99.10
2022-12-26T16:24:44.203Z,100.00
2022-12-26T16:27:16.611Z,100.00
2022-12-26T16:29:47.382Z,100.00
2022-12-26T16:32:18.313Z,100.00
2022-12-26T16:34:47.517Z,100.00
2022-12-26T16:37:19.969Z,100.00
2022-12-26T16:40:05.941Z,100.00
2022-12-26T16:42:33.996Z,100.00
2022-12-26T16:45:02.012Z,100.00
2022-12-26T16:47:32.203Z,100.00
2022-12-26T16:50:01.355Z,100.00
2022-12-26T16:52:33.232Z,100.00
2022-12-26T16:55:24.987Z,100.00
2022-12-26T16:57:53.477Z,100.00
2022-12-26T17:00:21.932Z,100.00
2022-12-26T17:02:51.889Z,100.00
2022-12-26T17:05:22.912Z,100.00
2022-12-26T17:07:52.161Z,100.00
2022-12-26T17:10:20.953Z,100.00
2022-12-26T17:12:48.984Z,100.00
2022-12-26T17:15:21.647Z,100.00
2022-12-26T17:17:49.552Z,100.00
2022-12-26T17:20:38.201Z,100.00
2022-12-26T17:23:37.059Z,100.00
2022-12-26T17:26:23.570Z,100.00
2022-12-26T17:28:51.859Z,100.00
2022-12-26T17:31:24.612Z,100.00
2022-12-26T17:33:56.102Z,100.00
2022-12-26T17:39:21.481Z,100.00
2022-12-26T17:41:52.358Z,100.00
2022-12-26T17:44:37.287Z,100.00
2022-12-26T17:47:15.154Z,100.00
2022-12-26T17:49:42.904Z,100.00
2022-12-26T17:52:12.364Z,100.00
2022-12-26T17:54:40.265Z,100.00
2022-12-26T17:57:09.436Z,100.00
2022-12-26T17:59:37.128Z,100.00
2022-12-26T18:02:05.219Z,100.00
2022-12-26T18:04:33.167Z,100.00
2022-12-26T18:07:01.177Z,100.00
2022-12-26T18:09:30.852Z,100.00
2022-12-26T18:11:58.732Z,100.00
2022-12-26T18:14:26.562Z,100.00
2022-12-26T18:16:54.335Z,100.00
2022-12-26T18:19:22.186Z,100.00
2022-12-26T18:21:49.960Z,100.00
2022-12-26T18:24:17.740Z,100.00
2022-12-26T18:26:46.774Z,100.00
2022-12-26T18:29:14.466Z,100.00
2022-12-26T18:31:42.201Z,100.00
2022-12-26T18:34:09.913Z,100.00
2022-12-26T18:36:41.080Z,100.00
2022-12-26T18:39:08.822Z,100.00
2022-12-26T18:41:36.837Z,100.00
2022-12-26T18:44:06.035Z,100.00
2022-12-26T18:46:33.719Z,100.00
2022-12-26T18:49:01.427Z,100.00
2022-12-26T18:51:29.108Z,100.00
2022-12-26T18:53:56.835Z,100.00
2022-12-26T18:56:24.765Z,100.00
2022-12-26T18:58:57.831Z,100.00
2022-12-26T19:01:27.422Z,100.00
2022-12-26T19:03:55.495Z,100.00
2022-12-26T19:06:25.367Z,100.00
2022-12-26T19:08:53.213Z,100.00
2022-12-26T19:11:21.281Z,100.00
2022-12-26T19:13:49.026Z,100.00
2022-12-26T19:16:17.165Z,100.00
2022-12-26T19:18:46.378Z,100.00
2022-12-26T19:21:15.835Z,100.00
2022-12-26T19:23:44.256Z,100.00
2022-12-26T19:26:12.843Z,100.00
2022-12-26T19:28:40.758Z,100.00
2022-12-26T19:31:09.278Z,100.00
2022-12-26T19:33:37.010Z,100.00
2022-12-26T19:36:07.075Z,100.00
2022-12-26T19:38:34.894Z,100.00
2022-12-26T19:41:03.683Z,100.00
2022-12-26T19:43:31.745Z,100.00
2022-12-26T19:46:00.808Z,97.54
2022-12-26T19:48:28.608Z,95.18
2022-12-26T19:50:56.286Z,94.31
2022-12-26T19:53:25.365Z,93.76
2022-12-26T19:55:53.235Z,94.91
2022-12-26T19:58:20.994Z,96.18
2022-12-26T20:00:49.493Z,97.85
2022-12-26T20:03:17.601Z,98.15
2022-12-26T20:05:45.497Z,98.35
2022-12-26T20:08:13.978Z,100.00
2022-12-26T20:10:43.377Z,100.00
2022-12-26T20:13:11.039Z,100.00
2022-12-26T20:15:38.706Z,100.00
2022-12-26T20:18:06.467Z,98.04
2022-12-26T20:20:34.272Z,97.21
2022-12-26T20:23:01.916Z,95.64
2022-12-26T20:25:29.720Z,94.05
2022-12-26T20:27:58.769Z,93.87
2022-12-26T20:30:26.554Z,93.25
2022-12-26T20:32:54.289Z,92.90
2022-12-26T20:35:22.002Z,92.75
2022-12-26T20:37:49.662Z,93.38
2022-12-26T20:40:17.574Z,92.77
2022-12-26T20:42:45.388Z,93.87
2022-12-26T20:45:14.477Z,93.85
2022-12-26T20:47:42.138Z,92.75
2022-12-26T20:50:10.472Z,92.24
2022-12-26T20:52:38.264Z,92.58
2022-12-26T20:55:06.624Z,93.07
2022-12-26T20:57:34.318Z,92.77
2022-12-26T21:00:02.086Z,93.09
2022-12-26T21:02:34.431Z,92.76
2022-12-26T21:05:05.778Z,92.84
2022-12-26T21:07:33.888Z,92.32
2022-12-26T21:10:01.804Z,92.97
2022-12-26T21:12:29.609Z,93.28
2022-12-26T21:14:57.410Z,93.45
2022-12-26T21:17:25.128Z,93.69
2022-12-26T21:19:54.358Z,93.63
2022-12-26T21:22:23.505Z,93.25
2022-12-26T21:24:51.203Z,92.89
2022-12-26T21:27:18.975Z,93.34
2022-12-26T21:29:46.707Z,93.27
2022-12-26T21:32:14.340Z,93.54
2022-12-26T21:34:42.127Z,93.77
2022-12-26T21:37:28.681Z,94.02
2022-12-26T21:39:56.534Z,94.28
2022-12-26T21:42:24.228Z,94.52
2022-12-26T21:44:52.080Z,95.38
2022-12-26T21:47:19.864Z,95.69
2022-12-26T21:49:47.737Z,95.94
2022-12-26T21:52:16.931Z,96.33
2022-12-26T21:55:02.509Z,97.19
2022-12-26T21:57:31.476Z,96.39
2022-12-26T21:59:59.830Z,96.55
2022-12-26T22:02:46.470Z,95.71
2022-12-26T22:05:14.308Z,95.96
2022-12-26T22:07:43.484Z,96.81
2022-12-26T22:10:33.408Z,96.91
2022-12-26T22:13:00.417Z,96.93
2022-12-26T22:15:45.862Z,96.85
2022-12-26T22:18:13.639Z,95.32
2022-12-26T22:20:41.412Z,95.69
2022-12-26T22:23:10.549Z,95.69
2022-12-26T22:25:38.412Z,96.21
2022-12-26T22:28:06.313Z,96.58
2022-12-26T22:30:33.931Z,97.71
2022-12-26T22:33:01.676Z,97.77
2022-12-26T22:35:29.424Z,97.95
2022-12-26T22:37:57.540Z,98.02
2022-12-26T22:40:26.512Z,98.37
2022-12-26T22:42:54.285Z,98.10
2022-12-26T22:45:23.246Z,98.54
2022-12-26T22:47:50.783Z,98.06
2022-12-26T22:50:20.456Z,97.61
2022-12-26T22:52:48.291Z,97.67
2022-12-26T22:55:16.027Z,97.87
2022-12-26T22:57:51.194Z,97.48
2022-12-26T23:00:20.862Z,98.15
2022-12-26T23:02:48.563Z,97.85
2022-12-26T23:05:21.738Z,98.08
2022-12-26T23:07:55.240Z,98.25
2022-12-26T23:10:26.017Z,98.45
2022-12-26T23:12:55.676Z,98.35
2022-12-26T23:15:25.557Z,97.30
2022-12-26T23:18:14.784Z,97.79
2022-12-26T23:21:00.222Z,97.24
2022-12-26T23:23:28.431Z,97.89
2022-12-26T23:25:56.240Z,97.77
2022-12-26T23:28:42.878Z,97.84
2022-12-26T23:31:10.596Z,97.38
2022-12-26T23:33:38.371Z,97.20
2022-12-26T23:36:06.567Z,96.44
2022-12-26T23:38:34.227Z,96.07
2022-12-26T23:41:01.871Z,95.63
2022-12-26T23:43:33.463Z,95.76
2022-12-26T23:46:01.531Z,96.95
2022-12-26T23:48:29.199Z,97.03
2022-12-26T23:51:03.680Z,96.66
2022-12-26T23:53:34.088Z,96.30
2022-12-26T23:56:01.745Z,95.23
2022-12-26T23:58:30.806Z,95.41
